sensor_id;sensor_type;location;lat;lon;timestamp;P1;durP1;ratioP1;P2;durP2;ratioP2
71869;SDS011;59739;47.696;11.746;2022-09-12T12:09:59;1.30;;;1.20;;
71869;SDS011;59739;47.696;11.746;2022-09-12T12:12:25;1.15;;;1.10;;
71869;SDS011;59739;47.696;11.746;2022-09-12T12:14:53;2.60;;;1.40;;
71869;SDS011;59739;47.696;11.746;2022-09-12T12:17:23;1.20;;;1.10;;
71869;SDS011;59739;47.696;11.746;2022-09-12T12:20:03;1.30;;;1.20;;
71869;SDS011;59739;47.696;11.746;2022-09-12T12:22:30;1.00;;;1.00;;
71869;SDS011;59739;47.696;11.746;2022-09-12T12:25:07;1.30;;;1.20;;
71869;SDS011;59739;47.696;11.746;2022-09-12T12:27:51;1.27;;;0.90;;
71869;SDS011;59739;47.696;11.746;2022-09-12T12:32:58;2.22;;;0.93;;
71869;SDS011;59739;47.696;11.746;2022-09-12T12:35:44;1.33;;;0.95;;
71869;SDS011;59739;47.696;11.746;2022-09-12T12:38:29;1.00;;;1.00;;
71869;SDS011;59739;47.696;11.746;2022-09-12T12:43:48;1.10;;;0.95;;
71869;SDS011;59739;47.696;11.746;2022-09-12T12:46:25;1.55;;;1.00;;
71869;SDS011;59739;47.696;11.746;2022-09-12T12:54:32;1.10;;;1.00;;
71869;SDS011;59739;47.696;11.746;2022-09-12T13:05:24;1.05;;;0.98;;
71869;SDS011;59739;47.696;11.746;2022-09-12T13:08:02;2.92;;;0.80;;
71869;SDS011;59739;47.696;11.746;2022-09-12T13:10:34;2.30;;;0.98;;
71869;SDS011;59739;47.696;11.746;2022-09-12T13:13:01;1.10;;;1.00;;
71869;SDS011;59739;47.696;11.746;2022-09-12T13:18:09;1.02;;;0.98;;
71869;SDS011;59739;47.696;11.746;2022-09-12T13:23:39;1.05;;;0.95;;
71869;SDS011;59739;47.696;11.746;2022-09-12T13:26:13;2.03;;;1.08;;
71869;SDS011;59739;47.696;11.746;2022-09-12T13:28:49;0.95;;;0.90;;
71869;SDS011;59739;47.696;11.746;2022-09-12T13:31:32;0.90;;;0.90;;
71869;SDS011;59739;47.696;11.746;2022-09-12T13:33:58;1.20;;;0.88;;
71869;SDS011;59739;47.696;11.746;2022-09-12T13:45:21;1.30;;;0.90;;
71869;SDS011;59739;47.696;11.746;2022-09-12T13:47:52;1.45;;;0.95;;
71869;SDS011;59739;47.696;11.746;2022-09-12T13:50:35;0.80;;;0.80;;
71869;SDS011;59739;47.696;11.746;2022-09-12T13:53:06;1.13;;;0.80;;
71869;SDS011;59739;47.696;11.746;2022-09-12T13:55:42;1.38;;;0.80;;
71869;SDS011;59739;47.696;11.746;2022-09-12T13:58:22;0.88;;;0.88;;
71869;SDS011;59739;47.696;11.746;2022-09-12T14:03:39;0.85;;;0.85;;
71869;SDS011;59739;47.696;11.746;2022-09-12T14:06:40;1.48;;;0.90;;
71869;SDS011;59739;47.696;11.746;2022-09-12T14:09:12;1.00;;;0.90;;
71869;SDS011;59739;47.696;11.746;2022-09-12T14:11:50;0.98;;;0.88;;
71869;SDS011;59739;47.696;11.746;2022-09-12T14:14:18;0.90;;;0.90;;
71869;SDS011;59739;47.696;11.746;2022-09-12T14:16:57;0.90;;;0.90;;
71869;SDS011;59739;47.696;11.746;2022-09-12T14:19:24;1.00;;;0.75;;
71869;SDS011;59739;47.696;11.746;2022-09-12T14:21:51;1.05;;;0.90;;
71869;SDS011;59739;47.696;11.746;2022-09-12T14:24:19;1.00;;;0.90;;
71869;SDS011;59739;47.696;11.746;2022-09-12T14:26:49;0.73;;;0.73;;
71869;SDS011;59739;47.696;11.746;2022-09-12T14:29:18;0.77;;;0.73;;
71869;SDS011;59739;47.696;11.746;2022-09-12T14:31:45;2.10;;;1.00;;
71869;SDS011;59739;47.696;11.746;2022-09-12T14:34:23;1.15;;;0.80;;
71869;SDS011;59739;47.696;11.746;2022-09-12T14:36:53;0.80;;;0.75;;
71869;SDS011;59739;47.696;11.746;2022-09-12T14:39:28;1.00;;;0.88;;
71869;SDS011;59739;47.696;11.746;2022-09-12T14:42:11;1.02;;;0.70;;
71869;SDS011;59739;47.696;11.746;2022-09-12T14:44:57;1.35;;;0.90;;
71869;SDS011;59739;47.696;11.746;2022-09-12T14:47:30;1.63;;;0.93;;
71869;SDS011;59739;47.696;11.746;2022-09-12T14:50:16;1.35;;;1.02;;
71869;SDS011;59739;47.696;11.746;2022-09-12T14:52:46;0.80;;;0.80;;
71869;SDS011;59739;47.696;11.746;2022-09-12T14:55:33;1.10;;;0.95;;
71869;SDS011;59739;47.696;11.746;2022-09-12T14:58:21;0.90;;;0.90;;
71869;SDS011;59739;47.696;11.746;2022-09-12T15:00:51;1.25;;;1.00;;
71869;SDS011;59739;47.696;11.746;2022-09-12T15:06:27;1.23;;;1.00;;
71869;SDS011;59739;47.696;11.746;2022-09-12T15:08:56;1.15;;;0.90;;
71869;SDS011;59739;47.696;11.746;2022-09-12T15:11:28;1.40;;;0.90;;
71869;SDS011;59739;47.696;11.746;2022-09-12T15:13:55;1.65;;;0.90;;
71869;SDS011;59739;47.696;11.746;2022-09-12T15:16:21;1.20;;;0.90;;
71869;SDS011;59739;47.696;11.746;2022-09-12T15:18:46;1.67;;;1.00;;
71869;SDS011;59739;47.696;11.746;2022-09-12T15:21:15;0.70;;;0.70;;
71869;SDS011;59739;47.696;11.746;2022-09-12T15:23:44;1.45;;;1.00;;
71869;SDS011;59739;47.696;11.746;2022-09-12T15:26:13;1.15;;;1.05;;
71869;SDS011;59739;47.696;11.746;2022-09-12T15:28:46;2.35;;;1.20;;
71869;SDS011;59739;47.696;11.746;2022-09-12T15:31:26;1.10;;;1.00;;
71869;SDS011;59739;47.696;11.746;2022-09-12T15:33:55;0.88;;;0.85;;
71869;SDS011;59739;47.696;11.746;2022-09-12T15:36:23;1.02;;;0.90;;
71869;SDS011;59739;47.696;11.746;2022-09-12T15:38:50;1.42;;;1.05;;
71869;SDS011;59739;47.696;11.746;2022-09-12T15:41:18;0.90;;;0.90;;
71869;SDS011;59739;47.696;11.746;2022-09-12T15:44:02;1.05;;;0.95;;
71869;SDS011;59739;47.696;11.746;2022-09-12T15:46:29;2.97;;;1.00;;
71869;SDS011;59739;47.696;11.746;2022-09-12T15:48:55;2.45;;;1.00;;
71869;SDS011;59739;47.696;11.746;2022-09-12T15:51:21;1.42;;;1.00;;
71869;SDS011;59739;47.696;11.746;2022-09-12T15:53:48;0.90;;;0.90;;
71869;SDS011;59739;47.696;11.746;2022-09-12T15:56:15;3.13;;;1.00;;
71869;SDS011;59739;47.696;11.746;2022-09-12T15:58:44;1.25;;;1.00;;
71869;SDS011;59739;47.696;11.746;2022-09-12T16:01:11;1.33;;;1.20;;
71869;SDS011;59739;47.696;11.746;2022-09-12T16:03:38;1.92;;;1.00;;
71869;SDS011;59739;47.696;11.746;2022-09-12T16:06:09;1.60;;;1.08;;
71869;SDS011;59739;47.696;11.746;2022-09-12T16:08:35;1.30;;;1.20;;
71869;SDS011;59739;47.696;11.746;2022-09-12T16:11:03;1.10;;;1.00;;
71869;SDS011;59739;47.696;11.746;2022-09-12T16:13:35;1.30;;;1.20;;
71869;SDS011;59739;47.696;11.746;2022-09-12T16:16:01;2.15;;;1.30;;
71869;SDS011;59739;47.696;11.746;2022-09-12T16:18:27;1.30;;;1.20;;
71869;SDS011;59739;47.696;11.746;2022-09-12T16:20:54;1.30;;;1.02;;
71869;SDS011;59739;47.696;11.746;2022-09-12T16:23:21;1.15;;;1.05;;
71869;SDS011;59739;47.696;11.746;2022-09-12T16:25:58;2.08;;;1.10;;
71869;SDS011;59739;47.696;11.746;2022-09-12T16:28:26;1.40;;;1.20;;
71869;SDS011;59739;47.696;11.746;2022-09-12T16:30:56;1.65;;;1.30;;
71869;SDS011;59739;47.696;11.746;2022-09-12T16:35:51;1.70;;;1.10;;
71869;SDS011;59739;47.696;11.746;2022-09-12T16:38:24;1.88;;;1.30;;
71869;SDS011;59739;47.696;11.746;2022-09-12T16:40:51;2.42;;;1.23;;
71869;SDS011;59739;47.696;11.746;2022-09-12T16:43:23;2.65;;;1.20;;
71869;SDS011;59739;47.696;11.746;2022-09-12T16:45:49;1.48;;;1.35;;
71869;SDS011;59739;47.696;11.746;2022-09-12T16:48:14;2.17;;;0.90;;
71869;SDS011;59739;47.696;11.746;2022-09-12T16:50:40;1.25;;;1.15;;
71869;SDS011;59739;47.696;11.746;2022-09-12T16:53:07;2.83;;;1.25;;
71869;SDS011;59739;47.696;11.746;2022-09-12T16:55:33;3.17;;;1.70;;
71869;SDS011;59739;47.696;11.746;2022-09-12T16:57:59;1.90;;;1.73;;
71869;SDS011;59739;47.696;11.746;2022-09-12T17:00:25;2.70;;;1.48;;
71869;SDS011;59739;47.696;11.746;2022-09-12T17:02:54;3.80;;;1.58;;
71869;SDS011;59739;47.696;11.746;2022-09-12T17:05:19;3.45;;;1.50;;
71869;SDS011;59739;47.696;11.746;2022-09-12T17:07:45;1.70;;;1.35;;
71869;SDS011;59739;47.696;11.746;2022-09-12T17:10:11;1.95;;;1.73;;
71869;SDS011;59739;47.696;11.746;2022-09-12T17:12:37;1.50;;;1.40;;
71869;SDS011;59739;47.696;11.746;2022-09-12T17:15:03;1.65;;;1.55;;
71869;SDS011;59739;47.696;11.746;2022-09-12T17:17:30;2.00;;;1.58;;
71869;SDS011;59739;47.696;11.746;2022-09-12T17:19:56;3.60;;;1.42;;
71869;SDS011;59739;47.696;11.746;2022-09-12T17:22:22;2.63;;;1.90;;
71869;SDS011;59739;47.696;11.746;2022-09-12T17:24:48;1.92;;;1.60;;
71869;SDS011;59739;47.696;11.746;2022-09-12T17:27:14;2.83;;;2.00;;
71869;SDS011;59739;47.696;11.746;2022-09-12T17:29:40;2.80;;;1.85;;
71869;SDS011;59739;47.696;11.746;2022-09-12T17:32:06;1.92;;;1.83;;
71869;SDS011;59739;47.696;11.746;2022-09-12T17:34:32;3.40;;;2.17;;
71869;SDS011;59739;47.696;11.746;2022-09-12T17:36:57;2.40;;;1.73;;
71869;SDS011;59739;47.696;11.746;2022-09-12T17:39:23;3.13;;;1.75;;
71869;SDS011;59739;47.696;11.746;2022-09-12T17:41:49;1.95;;;1.77;;
71869;SDS011;59739;47.696;11.746;2022-09-12T17:44:16;4.00;;;1.65;;
71869;SDS011;59739;47.696;11.746;2022-09-12T17:46:42;1.77;;;1.60;;
71869;SDS011;59739;47.696;11.746;2022-09-12T17:49:13;2.35;;;1.58;;
71869;SDS011;59739;47.696;11.746;2022-09-12T17:51:41;2.75;;;1.80;;
71869;SDS011;59739;47.696;11.746;2022-09-12T17:54:15;3.13;;;1.83;;
71869;SDS011;59739;47.696;11.746;2022-09-12T17:56:43;3.38;;;1.95;;
71869;SDS011;59739;47.696;11.746;2022-09-12T17:59:13;4.72;;;2.28;;
71869;SDS011;59739;47.696;11.746;2022-09-12T18:01:43;3.53;;;1.88;;
71869;SDS011;59739;47.696;11.746;2022-09-12T18:04:28;4.80;;;3.55;;
71869;SDS011;59739;47.696;11.746;2022-09-12T18:06:54;7.45;;;4.78;;
71869;SDS011;59739;47.696;11.746;2022-09-12T18:09:21;5.97;;;3.67;;
71869;SDS011;59739;47.696;11.746;2022-09-12T18:11:52;6.03;;;2.90;;
71869;SDS011;59739;47.696;11.746;2022-09-12T18:14:18;4.00;;;2.67;;
71869;SDS011;59739;47.696;11.746;2022-09-12T18:16:45;3.25;;;2.47;;
71869;SDS011;59739;47.696;11.746;2022-09-12T18:19:11;4.00;;;2.45;;
71869;SDS011;59739;47.696;11.746;2022-09-12T18:21:38;3.72;;;2.25;;
71869;SDS011;59739;47.696;11.746;2022-09-12T18:24:05;3.22;;;2.30;;
71869;SDS011;59739;47.696;11.746;2022-09-12T18:26:32;3.40;;;2.20;;
71869;SDS011;59739;47.696;11.746;2022-09-12T18:28:58;3.50;;;2.50;;
71869;SDS011;59739;47.696;11.746;2022-09-12T18:31:25;3.45;;;2.45;;
71869;SDS011;59739;47.696;11.746;2022-09-12T18:33:54;3.60;;;2.80;;
71869;SDS011;59739;47.696;11.746;2022-09-12T18:36:20;5.43;;;2.85;;
71869;SDS011;59739;47.696;11.746;2022-09-12T18:38:47;4.22;;;2.50;;
71869;SDS011;59739;47.696;11.746;2022-09-12T18:41:14;4.22;;;3.40;;
71869;SDS011;59739;47.696;11.746;2022-09-12T18:43:46;5.80;;;2.78;;
71869;SDS011;59739;47.696;11.746;2022-09-12T18:46:17;4.72;;;2.90;;
71869;SDS011;59739;47.696;11.746;2022-09-12T18:48:44;4.47;;;3.10;;
71869;SDS011;59739;47.696;11.746;2022-09-12T18:51:11;4.82;;;2.67;;
71869;SDS011;59739;47.696;11.746;2022-09-12T18:53:54;3.20;;;2.38;;
71869;SDS011;59739;47.696;11.746;2022-09-12T18:56:26;2.50;;;2.10;;
71869;SDS011;59739;47.696;11.746;2022-09-12T18:58:58;4.00;;;2.67;;
71869;SDS011;59739;47.696;11.746;2022-09-12T19:01:30;4.78;;;2.55;;
71869;SDS011;59739;47.696;11.746;2022-09-12T19:04:02;5.72;;;2.88;;
71869;SDS011;59739;47.696;11.746;2022-09-12T19:06:30;4.53;;;2.70;;
71869;SDS011;59739;47.696;11.746;2022-09-12T19:08:59;4.43;;;2.60;;
71869;SDS011;59739;47.696;11.746;2022-09-12T19:11:26;4.45;;;2.75;;
71869;SDS011;59739;47.696;11.746;2022-09-12T19:13:53;4.45;;;2.55;;
71869;SDS011;59739;47.696;11.746;2022-09-12T19:16:21;3.45;;;2.50;;
71869;SDS011;59739;47.696;11.746;2022-09-12T19:18:51;5.22;;;3.25;;
71869;SDS011;59739;47.696;11.746;2022-09-12T19:21:20;5.07;;;3.95;;
71869;SDS011;59739;47.696;11.746;2022-09-12T19:23:49;6.15;;;4.22;;
71869;SDS011;59739;47.696;11.746;2022-09-12T19:26:17;6.15;;;4.57;;
71869;SDS011;59739;47.696;11.746;2022-09-12T19:28:44;6.72;;;4.35;;
71869;SDS011;59739;47.696;11.746;2022-09-12T19:31:12;6.70;;;4.80;;
71869;SDS011;59739;47.696;11.746;2022-09-12T19:33:42;8.32;;;5.57;;
71869;SDS011;59739;47.696;11.746;2022-09-12T19:36:10;12.38;;;6.22;;
71869;SDS011;59739;47.696;11.746;2022-09-12T19:38:38;7.13;;;5.78;;
71869;SDS011;59739;47.696;11.746;2022-09-12T19:41:05;11.40;;;6.78;;
71869;SDS011;59739;47.696;11.746;2022-09-12T19:43:34;11.15;;;6.88;;
71869;SDS011;59739;47.696;11.746;2022-09-12T19:46:00;16.25;;;7.65;;
71869;SDS011;59739;47.696;11.746;2022-09-12T19:48:27;8.82;;;6.70;;
71869;SDS011;59739;47.696;11.746;2022-09-12T19:51:00;9.00;;;7.05;;
71869;SDS011;59739;47.696;11.746;2022-09-12T19:53:28;6.55;;;5.07;;
71869;SDS011;59739;47.696;11.746;2022-09-12T19:55:59;4.28;;;2.78;;
71869;SDS011;59739;47.696;11.746;2022-09-12T19:58:27;4.15;;;2.58;;
71869;SDS011;59739;47.696;11.746;2022-09-12T20:00:54;3.92;;;2.25;;
71869;SDS011;59739;47.696;11.746;2022-09-12T20:03:30;3.83;;;2.80;;
71869;SDS011;59739;47.696;11.746;2022-09-12T20:06:05;5.00;;;2.35;;
71869;SDS011;59739;47.696;11.746;2022-09-12T20:08:34;2.90;;;2.00;;
71869;SDS011;59739;47.696;11.746;2022-09-12T20:11:05;4.97;;;2.15;;
71869;SDS011;59739;47.696;11.746;2022-09-12T20:13:35;3.13;;;2.30;;
71869;SDS011;59739;47.696;11.746;2022-09-12T20:16:05;3.22;;;2.50;;
71869;SDS011;59739;47.696;11.746;2022-09-12T20:18:34;4.82;;;2.40;;
71869;SDS011;59739;47.696;11.746;2022-09-12T20:24:19;5.25;;;2.30;;
71869;SDS011;59739;47.696;11.746;2022-09-12T20:26:44;3.92;;;2.20;;
71869;SDS011;59739;47.696;11.746;2022-09-12T20:29:10;4.90;;;2.13;;
71869;SDS011;59739;47.696;11.746;2022-09-12T20:31:37;2.85;;;2.20;;
71869;SDS011;59739;47.696;11.746;2022-09-12T20:34:05;2.50;;;2.10;;
71869;SDS011;59739;47.696;11.746;2022-09-12T20:36:37;2.60;;;1.88;;
71869;SDS011;59739;47.696;11.746;2022-09-12T20:39:03;3.30;;;1.90;;
71869;SDS011;59739;47.696;11.746;2022-09-12T20:41:30;2.78;;;1.98;;
71869;SDS011;59739;47.696;11.746;2022-09-12T20:44:00;2.40;;;2.10;;
71869;SDS011;59739;47.696;11.746;2022-09-12T20:46:26;2.78;;;1.80;;
71869;SDS011;59739;47.696;11.746;2022-09-12T20:48:53;3.85;;;1.75;;
71869;SDS011;59739;47.696;11.746;2022-09-12T20:51:20;1.77;;;1.65;;
71869;SDS011;59739;47.696;11.746;2022-09-12T20:53:47;5.70;;;1.90;;
71869;SDS011;59739;47.696;11.746;2022-09-12T20:56:16;3.08;;;1.75;;
71869;SDS011;59739;47.696;11.746;2022-09-12T20:58:42;3.55;;;2.13;;
71869;SDS011;59739;47.696;11.746;2022-09-12T21:01:09;3.85;;;1.50;;
71869;SDS011;59739;47.696;11.746;2022-09-12T21:03:36;1.98;;;1.70;;
71869;SDS011;59739;47.696;11.746;2022-09-12T21:06:04;1.77;;;1.65;;
71869;SDS011;59739;47.696;11.746;2022-09-12T21:08:31;2.00;;;1.80;;
71869;SDS011;59739;47.696;11.746;2022-09-12T21:10:57;2.22;;;1.75;;
71869;SDS011;59739;47.696;11.746;2022-09-12T21:13:24;2.85;;;1.77;;
71869;SDS011;59739;47.696;11.746;2022-09-12T21:15:56;2.80;;;1.80;;
71869;SDS011;59739;47.696;11.746;2022-09-12T21:18:24;1.65;;;1.50;;
71869;SDS011;59739;47.696;11.746;2022-09-12T21:20:53;3.40;;;1.77;;
71869;SDS011;59739;47.696;11.746;2022-09-12T21:23:20;2.90;;;1.70;;
71869;SDS011;59739;47.696;11.746;2022-09-12T21:25:47;4.47;;;2.03;;
71869;SDS011;59739;47.696;11.746;2022-09-12T21:28:14;2.42;;;1.83;;
71869;SDS011;59739;47.696;11.746;2022-09-12T21:30:41;2.38;;;1.80;;
71869;SDS011;59739;47.696;11.746;2022-09-12T21:33:08;4.35;;;1.75;;
71869;SDS011;59739;47.696;11.746;2022-09-12T21:35:35;2.00;;;1.80;;
71869;SDS011;59739;47.696;11.746;2022-09-12T21:38:02;3.75;;;1.90;;
71869;SDS011;59739;47.696;11.746;2022-09-12T21:40:28;2.15;;;1.85;;
71869;SDS011;59739;47.696;11.746;2022-09-12T21:42:54;1.95;;;1.77;;
71869;SDS011;59739;47.696;11.746;2022-09-12T21:45:21;1.60;;;1.50;;
71869;SDS011;59739;47.696;11.746;2022-09-12T21:47:47;1.67;;;1.58;;
71869;SDS011;59739;47.696;11.746;2022-09-12T21:50:13;4.25;;;1.70;;
71869;SDS011;59739;47.696;11.746;2022-09-12T21:52:39;2.78;;;1.90;;
71869;SDS011;59739;47.696;11.746;2022-09-12T21:55:05;2.60;;;1.65;;
71869;SDS011;59739;47.696;11.746;2022-09-12T21:57:33;2.03;;;1.83;;
71869;SDS011;59739;47.696;11.746;2022-09-12T22:00:00;2.75;;;1.50;;
71869;SDS011;59739;47.696;11.746;2022-09-12T22:02:33;2.22;;;1.60;;
71869;SDS011;59739;47.696;11.746;2022-09-12T22:04:59;2.50;;;1.70;;
71869;SDS011;59739;47.696;11.746;2022-09-12T22:07:25;6.57;;;1.70;;
71869;SDS011;59739;47.696;11.746;2022-09-12T22:09:51;2.85;;;1.60;;
71869;SDS011;59739;47.696;11.746;2022-09-12T22:12:17;3.15;;;1.40;;
71869;SDS011;59739;47.696;11.746;2022-09-12T22:14:43;1.65;;;1.50;;
71869;SDS011;59739;47.696;11.746;2022-09-12T22:17:13;2.92;;;1.83;;
71869;SDS011;59739;47.696;11.746;2022-09-12T22:19:39;1.77;;;1.60;;
71869;SDS011;59739;47.696;11.746;2022-09-12T22:22:06;2.38;;;1.60;;
71869;SDS011;59739;47.696;11.746;2022-09-12T22:24:51;2.88;;;1.58;;
71869;SDS011;59739;47.696;11.746;2022-09-12T22:27:17;2.05;;;1.63;;
71869;SDS011;59739;47.696;11.746;2022-09-12T22:29:43;1.83;;;1.27;;
71869;SDS011;59739;47.696;11.746;2022-09-12T22:32:13;1.60;;;1.42;;
71869;SDS011;59739;47.696;11.746;2022-09-12T22:34:40;3.17;;;1.67;;
71869;SDS011;59739;47.696;11.746;2022-09-12T22:37:05;1.98;;;1.63;;
71869;SDS011;59739;47.696;11.746;2022-09-12T22:39:31;2.47;;;1.90;;
71869;SDS011;59739;47.696;11.746;2022-09-12T22:41:57;2.15;;;1.58;;
71869;SDS011;59739;47.696;11.746;2022-09-12T22:44:23;2.88;;;1.73;;
71869;SDS011;59739;47.696;11.746;2022-09-12T22:46:49;4.10;;;2.00;;
71869;SDS011;59739;47.696;11.746;2022-09-12T22:49:15;1.98;;;1.60;;
71869;SDS011;59739;47.696;11.746;2022-09-12T22:51:42;2.47;;;1.70;;
71869;SDS011;59739;47.696;11.746;2022-09-12T22:54:08;2.50;;;1.67;;
71869;SDS011;59739;47.696;11.746;2022-09-12T22:56:35;3.45;;;1.70;;
71869;SDS011;59739;47.696;11.746;2022-09-12T22:59:01;2.78;;;1.80;;
71869;SDS011;59739;47.696;11.746;2022-09-12T23:01:27;2.00;;;1.80;;
71869;SDS011;59739;47.696;11.746;2022-09-12T23:03:53;1.70;;;1.60;;
71869;SDS011;59739;47.696;11.746;2022-09-12T23:06:19;1.50;;;1.40;;
71869;SDS011;59739;47.696;11.746;2022-09-12T23:08:45;2.00;;;1.80;;
71869;SDS011;59739;47.696;11.746;2022-09-12T23:11:13;1.67;;;1.52;;
71869;SDS011;59739;47.696;11.746;2022-09-12T23:13:42;2.25;;;1.92;;
71869;SDS011;59739;47.696;11.746;2022-09-12T23:16:14;1.88;;;1.77;;
71869;SDS011;59739;47.696;11.746;2022-09-12T23:18:44;1.70;;;1.60;;
71869;SDS011;59739;47.696;11.746;2022-09-12T23:21:11;1.40;;;1.30;;
71869;SDS011;59739;47.696;11.746;2022-09-12T23:23:39;2.13;;;1.40;;
71869;SDS011;59739;47.696;11.746;2022-09-12T23:26:10;2.28;;;1.50;;
71869;SDS011;59739;47.696;11.746;2022-09-12T23:31:16;1.98;;;1.50;;
71869;SDS011;59739;47.696;11.746;2022-09-12T23:33:44;1.60;;;1.50;;
71869;SDS011;59739;47.696;11.746;2022-09-12T23:36:11;1.90;;;1.70;;
71869;SDS011;59739;47.696;11.746;2022-09-12T23:38:41;2.90;;;1.50;;
71869;SDS011;59739;47.696;11.746;2022-09-12T23:41:10;1.65;;;1.40;;
71869;SDS011;59739;47.696;11.746;2022-09-12T23:43:37;2.08;;;1.30;;
71869;SDS011;59739;47.696;11.746;2022-09-12T23:46:04;1.60;;;1.50;;
71869;SDS011;59739;47.696;11.746;2022-09-12T23:48:31;2.00;;;1.30;;
71869;SDS011;59739;47.696;11.746;2022-09-12T23:50:58;1.48;;;1.38;;
71869;SDS011;59739;47.696;11.746;2022-09-12T23:53:25;3.55;;;1.70;;
71869;SDS011;59739;47.696;11.746;2022-09-12T23:55:51;2.90;;;1.60;;
71869;SDS011;59739;47.696;11.746;2022-09-12T23:58:18;2.70;;;1.52;;
